ENVA/TRD METAR and TAF weather

Enter ICAO airport designator
Station Type Date Time Source
ENVA METAR 2018/04/26 14:50 UTC NOAA

ENVA 261450Z 26009KT 9999 DZ SCT027 BKN035TCU 08/04 Q1000 NOSIG RMK WIND 670FT 29009KT


Station Type Date Time Source
ENVA Decoded METAR 2018/04/26 14:50 UTC NOAA

Trondheim / Vaernes, Norway (ENVA) 63-28N 010-56E 17M
Apr 26, 2018 - 10:50 AM EDT / 2018.04.26 1450 UTC
Wind: from the W (260 degrees) at 10 MPH (9 KT):0
Visibility: greater than 7 mile(s):0
Sky conditions: mostly cloudy
Weather: drizzle; Towering cumulus clouds observed
Temperature: 46 F (8 C)
Dew Point: 39 F (4 C)
Relative Humidity: 75%
Pressure (altimeter): 29.53 in. Hg (1000 hPa)
ob: ENVA 261450Z 26009KT 9999 DZ SCT027 BKN035TCU 08/04 Q1000 NOSIG RMK WIND 670FT 29009KT
cycle: 15

Station Type Date Time Source
ENVA TAF 2018/04/26 12:57 UTC NOAA

TAF ENVA 2612/2712 11005KT 9999 -SHRA FEW018TCU SCT030 BKN045
TEMPO 2612/2712 25010KT SHRA BKN018CB


Example: see airport list